Overseas Boston — WJBU — position and weather

sailwx.info

Track history (hours):
 
Tides and Currents Weather Stations Pressure Air Temp Water Temp Dewpoint Dewpoint Depression Visibility Wind Speed Wind Dir Waves Ship Positions

Overseas Boston

More information available from US FCC via Universal Licensing System and Coast Guard Vessel Documentation Center.

Last reported at 2014-Jul-24 00:10 UTC. Time now 2014-Jul-24 02:24 UTC.
Position N 33°46' W 118°13'.

Length 183 m; draft 11.2 m.

Type: Tanker. MMSI: 338221000.

Date/timePositionNaut miles runAvg speedWind from/ knotsBaromVisibWave heightAir tempDewpointWater temp
2014-Jul-24 00:10N 33°46' W 118°13'0 0.0
2014-Jul-23 21:28N 33°46' W 118°13'1 0.0
2014-Jul-23 01:33N 33°46' W 118°13'6 6.1
2014-Jul-23 00:33N 33°40' W 118°11'1110.8
2014-Jul-22 23:33N 33°37' W 118°23'1312.0
2014-Jul-22 22:29N 33°39' W 118°38'1111.9
2014-Jul-22 21:33N 33°41' W 118°52'1211.9
2014-Jul-22 20:33N 33°44' W 119°06'1312.9
2014-Jul-22 19:32N 33°45' W 119°21'1212.7
2014-Jul-22 18:33N 33°45' W 119°36'2612.2
2014-Jul-22 16:25N 33°40' W 120°07'1910.3
2014-Jul-22 14:34N 33°29' W 120°26'9 8.8
2014-Jul-22 13:31N 33°25' W 120°36'4214.3
2014-Jul-22 10:33N 33°51' W 121°15'2314.5
2014-Jul-22 09:00N 34°06' W 121°36'816.1 340 / 41018.510.8 18.3
2014-Jul-22 08:29N 34°11' W 121°44'2115.4
2014-Jul-22 07:09N 34°25' W 122°02'1014.9
2014-Jul-22 06:29N 34°31' W 122°11'5 9.1
2014-Jul-22 06:00N 34°30' W 122°06'3323.0 050 / 11018.0 16.115.3
2014-Jul-22 04:33N 34°50' W 122°38'1614.6
2014-Jul-22 03:29N 35°00' W 122°52'60123.0
2014-Jul-22 03:00N 34°00' W 122°48'71150.2 120 / 41017.2 0.517.816.9
2014-Jul-22 02:31N 35°10' W 123°06'1615.0
2014-Jul-22 01:27N 35°20' W 123°20'1915.2
2014-Jul-22 00:11N 35°38' W 123°30'1015.3
2014-Jul-21 23:33N 35°47' W 123°35'1515.4
2014-Jul-21 22:33N 36°01' W 123°43'1615.4
2014-Jul-21 21:32N 36°15' W 123°51'4 7.1
2014-Jul-21 21:00N 36°18' W 123°54'2119.3 320 / 71018.110.8 1.017.816.9
2014-Jul-21 19:55N 36°37' W 124°04'514.4
2014-Jul-21 19:33N 36°42' W 124°07'1514.5
2014-Jul-21 18:33N 36°55' W 124°14'5 9.5
2014-Jul-21 18:00N 37°00' W 124°12'1226.7 160 / 131017.8 1.017.816.9
2014-Jul-21 17:33N 37°08' W 124°22'6614.8
2014-Jul-21 13:05N 38°09' W 124°57'1614.3
2014-Jul-21 12:00N 38°24' W 125°00'1118.9 040 / 101015.910.8 0.513.9
2014-Jul-21 11:24N 38°31' W 125°11'12114.4
2014-Jul-21 03:00N 40°30' W 125°42'36015.0 330 / 121017.0 1.519.417.7
2014-Jul-20 03:00N 46°30' W 125°54'4816.0 290 / 131017.6 2.516.715.7
2014-Jul-20 00:00N 47°18' W 125°54'4214.0 320 / 151017.510.8 17.816.1
2014-Jul-19 21:00N 48°00' W 125°54'1318.4 270 / 151016.8 0.5 16.716.7
2014-Jul-19 20:17N 48°13' W 125°56'1013.9
2014-Jul-19 19:33N 48°19' W 125°44'1413.8
2014-Jul-19 18:33N 48°29' W 125°29'1312.8
2014-Jul-19 17:33N 48°31' W 125°10'1414.0
2014-Jul-19 16:33N 48°31' W 124°49'1313.5
2014-Jul-19 15:34N 48°27' W 124°30'1413.9
2014-Jul-19 14:33N 48°21' W 124°10'1514.5
2014-Jul-19 13:33N 48°17' W 123°50'1515.0
2014-Jul-19 12:34N 48°13' W 123°28'9 9.1
2014-Jul-19 11:33N 48°12' W 123°14'1413.9
2014-Jul-19 10:33N 48°21' W 122°58'1211.6
2014-Jul-19 09:34N 48°28' W 122°45'7 7.3
2014-Jul-19 08:33N 48°31' W 122°34'0 0.0
2014-Jul-19 07:23N 48°31' W 122°34'0 0.0
2014-Jul-19 06:29N 48°31' W 122°34'0 0.0
2014-Jul-19 05:29N 48°31' W 122°34'0 0.0
2014-Jul-19 04:29N 48°31' W 122°34'0 0.0
2014-Jul-19 03:29N 48°31' W 122°34'0 0.0
2014-Jul-19 02:29N 48°31' W 122°34'0 0.0
2014-Jul-19 01:29N 48°31' W 122°34'0 0.0
2014-Jul-19 00:29N 48°31' W 122°34'0 0.0
2014-Jul-18 23:29N 48°31' W 122°34'0 0.0
2014-Jul-18 22:29N 48°31' W 122°34'0 0.0
2014-Jul-18 21:29N 48°31' W 122°34'0 0.0
2014-Jul-18 20:29N 48°31' W 122°34'0 0.0
2014-Jul-18 19:29N 48°31' W 122°34'0 0.0
2014-Jul-18 18:29N 48°31' W 122°34'0 0.0
2014-Jul-18 17:29N 48°31' W 122°34'0 0.0
2014-Jul-18 16:29N 48°31' W 122°34'0 0.0
2014-Jul-18 15:23N 48°31' W 122°34'0 0.0
2014-Jul-18 14:29N 48°31' W 122°34'0 0.0
2014-Jul-18 13:29N 48°31' W 122°34'0 0.0
2014-Jul-18 12:23N 48°31' W 122°34'0 0.0
2014-Jul-18 11:29N 48°31' W 122°34'0 0.0
2014-Jul-18 10:29N 48°31' W 122°34'0 0.0
2014-Jul-18 09:29N 48°31' W 122°34'0 0.0
2014-Jul-18 08:29N 48°31' W 122°34'0 0.0
2014-Jul-18 07:29N 48°31' W 122°34'0 0.0
2014-Jul-18 06:29N 48°31' W 122°34'0 0.0
2014-Jul-18 05:23N 48°31' W 122°34'0 0.0
2014-Jul-18 04:29N 48°31' W 122°34'0 0.0
2014-Jul-18 03:23N 48°31' W 122°34'0 0.0
2014-Jul-18 02:29N 48°31' W 122°34'0 0.0
2014-Jul-18 01:29N 48°31' W 122°34'0 0.0
2014-Jul-18 00:29N 48°31' W 122°34'0 0.0
2014-Jul-17 23:29N 48°31' W 122°34'1 1.0
2014-Jul-17 22:33N 48°31' W 122°35'6 5.9
2014-Jul-17 21:34N 48°29' W 122°44'9 9.2
2014-Jul-17 20:33N 48°22' W 122°53'1211.2
2014-Jul-17 19:32N 48°16' W 123°07'1212.2
2014-Jul-17 18:33N 48°10' W 123°23'9 8.8
2014-Jul-17 17:34N 48°13' W 123°35'9 9.2
2014-Jul-17 16:34N 48°13' W 123°49'9 9.0
2014-Jul-17 15:32N 48°15' W 124°03'9 9.3
2014-Jul-17 14:33N 48°19' W 124°15'9 9.4
2014-Jul-17 13:34N 48°23' W 124°28'1212.0
2014-Jul-17 12:34N 48°29' W 124°44'1312.3
2014-Jul-17 11:33N 48°26' W 125°03'1312.9
2014-Jul-17 10:34N 48°15' W 125°12'1313.0
2014-Jul-17 09:32N 48°04' W 125°23'1018.9
2014-Jul-17 09:00N 47°54' W 125°18'5511.6 310 / 201015.010.8 13.9
2014-Jul-17 04:17N 47°07' W 126°00'1211.4
2014-Jul-17 03:12N 46°55' W 126°00'3711.5
2014-Jul-17 00:00N 46°18' W 126°00'32413.5 340 / 191018.010.8 2.016.713.9
2014-Jul-16 00:00N 40°54' W 125°42'14111.3 360 / 181016.7 2.2 15.014.0
2014-Jul-15 11:33N 38°35' W 125°12'1413.6
2014-Jul-15 10:33N 38°23' W 125°03'1413.7
2014-Jul-15 09:33N 38°12' W 124°54'1120.2
2014-Jul-15 09:00N 38°06' W 124°42'4311.5 320 / 151013.2 0.1 13.9
2014-Jul-15 05:13N 37°37' W 124°01'1412.9
2014-Jul-15 04:10N 37°36' W 123°44'812.8
2014-Jul-15 03:33N 37°36' W 123°34'1312.6
2014-Jul-15 02:33N 37°35' W 123°18'1212.2
2014-Jul-15 01:33N 37°35' W 123°03'1313.1
2014-Jul-15 00:33N 37°42' W 122°49'1111.0
2014-Jul-14 23:33N 37°46' W 122°36'1110.7
2014-Jul-14 22:33N 37°52' W 122°25'8 8.0
2014-Jul-14 21:33N 38°00' W 122°25'8 8.0
2014-Jul-14 20:33N 38°04' W 122°16'  
Track history (hours):
 
Tides and Currents Weather Stations Pressure Air Temp Water Temp Dewpoint Dewpoint Depression Visibility Wind Speed Wind Dir Waves Ship Positions

Overseas Boston

More information available from US FCC via Universal Licensing System and Coast Guard Vessel Documentation Center.

Last reported at 2014-Jul-24 00:10 UTC. Time now 2014-Jul-24 02:24 UTC.
Position N 33°46' W 118°13'.

Length 183 m; draft 11.2 m.

Type: Tanker. MMSI: 338221000.

Date/timePositionNaut miles runAvg speedWind from/ knotsBaromVisibWave heightAir tempDewpointWater temp
2014-Jul-24 00:10N 33°46' W 118°13'0 0.0
2014-Jul-23 21:28N 33°46' W 118°13'1 0.0
2014-Jul-23 01:33N 33°46' W 118°13'6 6.1
2014-Jul-23 00:33N 33°40' W 118°11'1110.8
2014-Jul-22 23:33N 33°37' W 118°23'1312.0
2014-Jul-22 22:29N 33°39' W 118°38'1111.9
2014-Jul-22 21:33N 33°41' W 118°52'1211.9
2014-Jul-22 20:33N 33°44' W 119°06'1312.9
2014-Jul-22 19:32N 33°45' W 119°21'1212.7
2014-Jul-22 18:33N 33°45' W 119°36'2612.2
2014-Jul-22 16:25N 33°40' W 120°07'1910.3
2014-Jul-22 14:34N 33°29' W 120°26'9 8.8
2014-Jul-22 13:31N 33°25' W 120°36'4214.3
2014-Jul-22 10:33N 33°51' W 121°15'2314.5
2014-Jul-22 09:00N 34°06' W 121°36'816.1 340 / 41018.510.8 18.3
2014-Jul-22 08:29N 34°11' W 121°44'2115.4
2014-Jul-22 07:09N 34°25' W 122°02'1014.9
2014-Jul-22 06:29N 34°31' W 122°11'5 9.1
2014-Jul-22 06:00N 34°30' W 122°06'3323.0 050 / 11018.0 16.115.3
2014-Jul-22 04:33N 34°50' W 122°38'1614.6
2014-Jul-22 03:29N 35°00' W 122°52'60123.0
2014-Jul-22 03:00N 34°00' W 122°48'71150.2 120 / 41017.2 0.517.816.9
2014-Jul-22 02:31N 35°10' W 123°06'1615.0
2014-Jul-22 01:27N 35°20' W 123°20'1915.2
2014-Jul-22 00:11N 35°38' W 123°30'1015.3
2014-Jul-21 23:33N 35°47' W 123°35'1515.4
2014-Jul-21 22:33N 36°01' W 123°43'1615.4
2014-Jul-21 21:32N 36°15' W 123°51'4 7.1
2014-Jul-21 21:00N 36°18' W 123°54'2119.3 320 / 71018.110.8 1.017.816.9
2014-Jul-21 19:55N 36°37' W 124°04'514.4
2014-Jul-21 19:33N 36°42' W 124°07'1514.5
2014-Jul-21 18:33N 36°55' W 124°14'5 9.5
2014-Jul-21 18:00N 37°00' W 124°12'1226.7 160 / 131017.8 1.017.816.9
2014-Jul-21 17:33N 37°08' W 124°22'6614.8
2014-Jul-21 13:05N 38°09' W 124°57'1614.3
2014-Jul-21 12:00N 38°24' W 125°00'1118.9 040 / 101015.910.8 0.513.9
2014-Jul-21 11:24N 38°31' W 125°11'12114.4
2014-Jul-21 03:00N 40°30' W 125°42'36015.0 330 / 121017.0 1.519.417.7
2014-Jul-20 03:00N 46°30' W 125°54'4816.0 290 / 131017.6 2.516.715.7
2014-Jul-20 00:00N 47°18' W 125°54'4214.0 320 / 151017.510.8 17.816.1
2014-Jul-19 21:00N 48°00' W 125°54'1318.4 270 / 151016.8 0.5 16.716.7
2014-Jul-19 20:17N 48°13' W 125°56'1013.9
2014-Jul-19 19:33N 48°19' W 125°44'1413.8
2014-Jul-19 18:33N 48°29' W 125°29'1312.8
2014-Jul-19 17:33N 48°31' W 125°10'1414.0
2014-Jul-19 16:33N 48°31' W 124°49'1313.5
2014-Jul-19 15:34N 48°27' W 124°30'1413.9
2014-Jul-19 14:33N 48°21' W 124°10'1514.5
2014-Jul-19 13:33N 48°17' W 123°50'1515.0
2014-Jul-19 12:34N 48°13' W 123°28'9 9.1
2014-Jul-19 11:33N 48°12' W 123°14'1413.9
2014-Jul-19 10:33N 48°21' W 122°58'1211.6
2014-Jul-19 09:34N 48°28' W 122°45'7 7.3
2014-Jul-19 08:33N 48°31' W 122°34'0 0.0
2014-Jul-19 07:23N 48°31' W 122°34'0 0.0
2014-Jul-19 06:29N 48°31' W 122°34'0 0.0
2014-Jul-19 05:29N 48°31' W 122°34'0 0.0
2014-Jul-19 04:29N 48°31' W 122°34'0 0.0
2014-Jul-19 03:29N 48°31' W 122°34'0 0.0
2014-Jul-19 02:29N 48°31' W 122°34'0 0.0
2014-Jul-19 01:29N 48°31' W 122°34'0 0.0
2014-Jul-19 00:29N 48°31' W 122°34'0 0.0
2014-Jul-18 23:29N 48°31' W 122°34'0 0.0
2014-Jul-18 22:29N 48°31' W 122°34'0 0.0
2014-Jul-18 21:29N 48°31' W 122°34'0 0.0
2014-Jul-18 20:29N 48°31' W 122°34'0 0.0
2014-Jul-18 19:29N 48°31' W 122°34'0 0.0
2014-Jul-18 18:29N 48°31' W 122°34'0 0.0
2014-Jul-18 17:29N 48°31' W 122°34'0 0.0
2014-Jul-18 16:29N 48°31' W 122°34'0 0.0
2014-Jul-18 15:23N 48°31' W 122°34'0 0.0
2014-Jul-18 14:29N 48°31' W 122°34'0 0.0
2014-Jul-18 13:29N 48°31' W 122°34'0 0.0
2014-Jul-18 12:23N 48°31' W 122°34'0 0.0
2014-Jul-18 11:29N 48°31' W 122°34'0 0.0
2014-Jul-18 10:29N 48°31' W 122°34'0 0.0
2014-Jul-18 09:29N 48°31' W 122°34'0 0.0
2014-Jul-18 08:29N 48°31' W 122°34'0 0.0
2014-Jul-18 07:29N 48°31' W 122°34'0 0.0
2014-Jul-18 06:29N 48°31' W 122°34'0 0.0
2014-Jul-18 05:23N 48°31' W 122°34'0 0.0
2014-Jul-18 04:29N 48°31' W 122°34'0 0.0
2014-Jul-18 03:23N 48°31' W 122°34'0 0.0
2014-Jul-18 02:29N 48°31' W 122°34'0 0.0
2014-Jul-18 01:29N 48°31' W 122°34'0 0.0
2014-Jul-18 00:29N 48°31' W 122°34'0 0.0
2014-Jul-17 23:29N 48°31' W 122°34'1 1.0
2014-Jul-17 22:33N 48°31' W 122°35'6 5.9
2014-Jul-17 21:34N 48°29' W 122°44'9 9.2
2014-Jul-17 20:33N 48°22' W 122°53'1211.2
2014-Jul-17 19:32N 48°16' W 123°07'1212.2
2014-Jul-17 18:33N 48°10' W 123°23'9 8.8
2014-Jul-17 17:34N 48°13' W 123°35'9 9.2
2014-Jul-17 16:34N 48°13' W 123°49'9 9.0
2014-Jul-17 15:32N 48°15' W 124°03'9 9.3
2014-Jul-17 14:33N 48°19' W 124°15'9 9.4
2014-Jul-17 13:34N 48°23' W 124°28'1212.0
2014-Jul-17 12:34N 48°29' W 124°44'1312.3
2014-Jul-17 11:33N 48°26' W 125°03'1312.9
2014-Jul-17 10:34N 48°15' W 125°12'1313.0
2014-Jul-17 09:32N 48°04' W 125°23'1018.9
2014-Jul-17 09:00N 47°54' W 125°18'5511.6 310 / 201015.010.8 13.9
2014-Jul-17 04:17N 47°07' W 126°00'1211.4
2014-Jul-17 03:12N 46°55' W 126°00'3711.5
2014-Jul-17 00:00N 46°18' W 126°00'32413.5 340 / 191018.010.8 2.016.713.9
2014-Jul-16 00:00N 40°54' W 125°42'14111.3 360 / 181016.7 2.2 15.014.0
2014-Jul-15 11:33N 38°35' W 125°12'1413.6
2014-Jul-15 10:33N 38°23' W 125°03'1413.7
2014-Jul-15 09:33N 38°12' W 124°54'1120.2
2014-Jul-15 09:00N 38°06' W 124°42'4311.5 320 / 151013.2 0.1 13.9
2014-Jul-15 05:13N 37°37' W 124°01'1412.9
2014-Jul-15 04:10N 37°36' W 123°44'812.8
2014-Jul-15 03:33N 37°36' W 123°34'1312.6
2014-Jul-15 02:33N 37°35' W 123°18'1212.2
2014-Jul-15 01:33N 37°35' W 123°03'1313.1
2014-Jul-15 00:33N 37°42' W 122°49'1111.0
2014-Jul-14 23:33N 37°46' W 122°36'1110.7
2014-Jul-14 22:33N 37°52' W 122°25'8 8.0
2014-Jul-14 21:33N 38°00' W 122°25'8 8.0
2014-Jul-14 20:33N 38°04' W 122°16'  

Dump ship's entire track history